Time,TemperatureF,DewpointF,PressureIn,WindDirection,WindDirectionDegrees,WindSpeedMPH,WindSpeedGustMPH,Humidity,HourlyPrecipIn,Conditions,Clouds,dailyrainin,SoftwareType,DateUTC
2013-01-22 00:06:00,12.7,0.4,30.33,ESE,112,2.2,-999.0,57,-99.99,,,0.00,Acu-Link.com,2013-01-22 06:06:00,
2013-01-22 00:21:00,12.9,0.6,30.32,South,180,3.2,-999.0,57,-99.99,,,0.00,Acu-Link.com,2013-01-22 06:21:00,
2013-01-22 00:36:00,12.9,0.9,30.32,SE,135,2.2,-999.0,58,-99.99,,,0.00,Acu-Link.com,2013-01-22 06:36:00,
2013-01-22 00:51:00,12.9,0.9,30.32,East,90,1.7,-999.0,58,-99.99,,,0.00,Acu-Link.com,2013-01-22 06:51:00,
2013-01-22 01:06:00,13.1,1.1,30.32,NNE,22,1.7,-999.0,58,-99.99,,,0.00,Acu-Link.com,2013-01-22 07:06:00,
2013-01-22 01:22:00,13.1,1.5,30.32,ESE,112,1.7,-999.0,59,-99.99,,,0.00,Acu-Link.com,2013-01-22 07:22:00,
2013-01-22 01:37:00,13.1,1.5,30.32,NNW,337,0.0,-999.0,59,-99.99,,,0.00,Acu-Link.com,2013-01-22 07:37:00,
2013-01-22 01:52:00,12.9,1.7,30.32,South,180,2.7,-999.0,60,-99.99,,,0.00,Acu-Link.com,2013-01-22 07:52:00,
2013-01-22 02:07:00,13.1,1.9,30.33,East,90,1.7,-999.0,60,-99.99,,,0.00,Acu-Link.com,2013-01-22 08:07:00,
2013-01-22 02:22:00,12.9,2.0,30.33,WNW,292,0.0,-999.0,61,-99.99,,,0.00,Acu-Link.com,2013-01-22 08:22:00,
2013-01-22 02:38:00,12.9,2.7,30.32,ENE,67,1.7,-999.0,63,-99.99,,,0.00,Acu-Link.com,2013-01-22 08:38:00,
2013-01-22 02:53:00,12.9,3.4,30.33,NE,45,0.0,-999.0,65,-99.99,,,0.00,Acu-Link.com,2013-01-22 08:53:00,
2013-01-22 03:15:00,12.9,2.7,30.33,NNE,22,1.1,-999.0,63,-99.99,,,0.00,Acu-Link.com,2013-01-22 09:15:00,
2013-01-22 03:30:00,12.7,3.2,30.33,NE,45,0.0,-999.0,65,-99.99,,,0.00,Acu-Link.com,2013-01-22 09:30:00,
2013-01-22 03:45:00,12.4,4.5,30.32,ENE,67,1.7,-999.0,70,-99.99,,,0.00,Acu-Link.com,2013-01-22 09:45:00,
2013-01-22 04:00:00,12.0,5.9,30.31,NE,45,1.1,-999.0,76,-99.99,,,0.00,Acu-Link.com,2013-01-22 10:00:00,
2013-01-22 04:15:00,11.7,6.7,30.31,NE,45,1.7,-999.0,80,-99.99,,,0.00,Acu-Link.com,2013-01-22 10:15:00,
2013-01-22 04:31:00,10.9,6.8,30.31,NNE,22,0.0,-999.0,83,-99.99,,,0.00,Acu-Link.com,2013-01-22 10:31:00,
2013-01-22 04:46:00,10.6,7.0,30.31,NE,45,2.7,-999.0,85,-99.99,,,0.00,Acu-Link.com,2013-01-22 10:46:00,
2013-01-22 05:01:00,10.4,7.3,30.30,ENE,67,2.2,-999.0,87,-99.99,,,0.00,Acu-Link.com,2013-01-22 11:01:00,
2013-01-22 05:16:00,10.4,7.3,30.30,ENE,67,3.2,-999.0,87,-99.99,,,0.00,Acu-Link.com,2013-01-22 11:16:00,
2013-01-22 05:47:00,9.5,6.7,30.30,East,90,1.1,-999.0,88,-99.99,,,0.00,Acu-Link.com,2013-01-22 11:47:00,
2013-01-22 06:02:00,9.5,6.9,30.30,East,90,2.2,-999.0,89,-99.99,,,0.00,Acu-Link.com,2013-01-22 12:02:00,
2013-01-22 06:17:00,9.7,7.1,30.30,SE,135,3.2,-999.0,89,-99.99,,,0.00,Acu-Link.com,2013-01-22 12:17:00,
2013-01-22 06:32:00,9.9,7.6,30.31,ENE,67,2.7,-999.0,90,-99.99,,,0.00,Acu-Link.com,2013-01-22 12:32:00,
2013-01-22 06:47:00,9.9,7.6,30.31,ESE,112,2.7,-999.0,90,-99.99,,,0.00,Acu-Link.com,2013-01-22 12:47:00,
2013-01-22 07:03:00,9.9,7.6,30.33,East,90,3.2,-999.0,90,-99.99,,,0.00,Acu-Link.com,2013-01-22 13:03:00,
2013-01-22 07:18:00,9.9,7.8,30.32,East,90,2.7,-999.0,91,-99.99,,,0.00,Acu-Link.com,2013-01-22 13:18:00,
2013-01-22 07:33:00,10.2,8.1,30.33,East,90,2.7,-999.0,91,-99.99,,,0.00,Acu-Link.com,2013-01-22 13:33:00,
2013-01-22 07:48:00,10.0,7.7,30.33,ENE,67,2.2,-999.0,90,-99.99,,,0.00,Acu-Link.com,2013-01-22 13:48:00,
2013-01-22 08:03:00,10.6,8.3,30.34,NE,45,2.7,-999.0,90,-99.99,,,0.00,Acu-Link.com,2013-01-22 14:03:00,
2013-01-22 08:19:00,11.3,8.7,30.34,ENE,67,3.2,-999.0,89,-99.99,,,0.00,Acu-Link.com,2013-01-22 14:19:00,
2013-01-22 08:34:00,11.7,8.3,30.34,ESE,112,3.7,-999.0,86,-99.99,,,0.00,Acu-Link.com,2013-01-22 14:34:00,
2013-01-22 08:49:00,12.0,7.6,30.36,NE,45,4.2,-999.0,82,-99.99,,,0.00,Acu-Link.com,2013-01-22 14:49:00,
2013-01-22 09:04:00,12.9,7.9,30.34,NE,45,5.8,-999.0,80,-99.99,,,0.00,Acu-Link.com,2013-01-22 15:04:00,
2013-01-22 09:20:00,13.8,8.5,30.35,ESE,112,4.7,-999.0,79,-99.99,,,0.00,Acu-Link.com,2013-01-22 15:20:00,
2013-01-22 09:35:00,14.5,8.6,30.35,ENE,67,4.2,-999.0,77,-99.99,,,0.00,Acu-Link.com,2013-01-22 15:35:00,
2013-01-22 09:50:00,14.7,7.9,30.36,East,90,7.3,-999.0,74,-99.99,,,0.00,Acu-Link.com,2013-01-22 15:50:00,
2013-01-22 10:05:00,16.0,9.5,30.36,ENE,67,4.7,-999.0,75,-99.99,,,0.00,Acu-Link.com,2013-01-22 16:05:00,
2013-01-22 10:20:00,16.5,9.4,30.35,ENE,67,3.7,-999.0,73,-99.99,,,0.00,Acu-Link.com,2013-01-22 16:20:00,
2013-01-22 10:36:00,17.2,10.4,30.35,East,90,3.7,-999.0,74,-99.99,,,0.00,Acu-Link.com,2013-01-22 16:36:00,
2013-01-22 10:51:00,18.0,10.2,30.35,NNE,22,2.2,-999.0,71,-99.99,,,0.00,Acu-Link.com,2013-01-22 16:51:00,
2013-01-22 11:36:00,19.0,10.2,30.33,SE,135,5.8,-999.0,68,-99.99,,,0.00,Acu-Link.com,2013-01-22 17:36:00,
2013-01-22 12:07:00,19.9,10.4,30.31,NNW,337,1.7,-999.0,66,-99.99,,,0.00,Acu-Link.com,2013-01-22 18:07:00,
2013-01-22 12:22:00,21.0,10.8,30.30,East,90,3.2,-999.0,64,-99.99,,,0.00,Acu-Link.com,2013-01-22 18:22:00,
2013-01-22 12:37:00,21.7,11.4,30.29,ESE,112,4.7,-999.0,64,-99.99,,,0.00,Acu-Link.com,2013-01-22 18:37:00,
2013-01-22 12:53:00,21.7,11.1,30.28,East,90,3.2,-999.0,63,-99.99,,,0.00,Acu-Link.com,2013-01-22 18:53:00,
2013-01-22 13:08:00,22.8,11.8,30.27,ESE,112,4.2,-999.0,62,-99.99,,,0.00,Acu-Link.com,2013-01-22 19:08:00,
2013-01-22 13:23:00,23.4,12.0,30.26,ESE,112,3.7,-999.0,61,-99.99,,,0.00,Acu-Link.com,2013-01-22 19:23:00,
2013-01-22 13:38:00,23.2,11.4,30.26,SSE,157,2.2,-999.0,60,-99.99,,,0.00,Acu-Link.com,2013-01-22 19:38:00,
2013-01-22 13:53:00,23.5,11.3,30.25,NNE,22,1.7,-999.0,59,-99.99,,,0.00,Acu-Link.com,2013-01-22 19:53:00,
2013-01-22 14:09:00,24.6,12.3,30.23,NNW,337,2.7,-999.0,59,-99.99,,,0.00,Acu-Link.com,2013-01-22 20:09:00,
2013-01-22 14:24:00,23.9,11.7,30.23,West,270,2.2,-999.0,59,-99.99,,,0.00,Acu-Link.com,2013-01-22 20:24:00,
2013-01-22 14:39:00,24.6,12.0,30.22,ENE,67,4.2,-999.0,58,-99.99,,,0.00,Acu-Link.com,2013-01-22 20:39:00,
2013-01-22 14:54:00,24.6,12.0,30.22,ESE,112,2.7,-999.0,58,-99.99,,,0.00,Acu-Link.com,2013-01-22 20:54:00,
2013-01-22 15:09:00,24.6,11.6,30.22,ENE,67,1.1,-999.0,57,-99.99,,,0.00,Acu-Link.com,2013-01-22 21:09:00,
2013-01-22 15:25:00,24.3,11.7,30.21,South,180,4.7,-999.0,58,-99.99,,,0.00,Acu-Link.com,2013-01-22 21:25:00,
2013-01-22 15:40:00,24.4,12.2,30.21,East,90,3.7,-999.0,59,-99.99,,,0.00,Acu-Link.com,2013-01-22 21:40:00,
2013-01-22 15:55:00,24.4,12.2,30.22,East,90,2.7,-999.0,59,-99.99,,,0.00,Acu-Link.com,2013-01-22 21:55:00,
2013-01-22 16:10:00,24.3,12.1,30.21,SSE,157,5.8,-999.0,59,-99.99,,,0.00,Acu-Link.com,2013-01-22 22:10:00,
2013-01-22 16:25:00,24.1,11.9,30.21,South,180,3.2,-999.0,59,-99.99,,,0.00,Acu-Link.com,2013-01-22 22:25:00,
2013-01-22 16:41:00,23.9,12.1,30.22,SW,225,3.7,-999.0,60,-99.99,,,0.00,Acu-Link.com,2013-01-22 22:41:00,
2013-01-22 17:11:00,23.0,11.6,30.22,ENE,67,1.7,-999.0,61,-99.99,,,0.00,Acu-Link.com,2013-01-22 23:11:00,
2013-01-22 17:26:00,21.9,11.3,30.22,East,90,0.0,-999.0,63,-99.99,,,0.00,Acu-Link.com,2013-01-22 23:26:00,
2013-01-22 17:42:00,21.4,11.1,30.23,ENE,67,0.0,-999.0,64,-99.99,,,0.00,Acu-Link.com,2013-01-22 23:42:00,
2013-01-22 18:12:00,20.5,10.6,30.23,East,90,1.7,-999.0,65,-99.99,,,0.00,Acu-Link.com,2013-01-23 00:12:00,
2013-01-22 18:27:00,19.9,10.4,30.22,SSE,157,2.2,-999.0,66,-99.99,,,0.00,Acu-Link.com,2013-01-23 00:27:00,
2013-01-22 18:42:00,19.8,10.3,30.22,SSE,157,2.2,-999.0,66,-99.99,,,0.00,Acu-Link.com,2013-01-23 00:42:00,
2013-01-22 18:58:00,19.4,10.3,30.23,SSE,157,2.2,-999.0,67,-99.99,,,0.00,Acu-Link.com,2013-01-23 00:58:00,
2013-01-22 19:13:00,19.8,10.6,30.23,South,180,2.2,-999.0,67,-99.99,,,0.00,Acu-Link.com,2013-01-23 01:13:00,
2013-01-22 19:28:00,19.0,10.2,30.23,SSE,157,1.7,-999.0,68,-99.99,,,0.00,Acu-Link.com,2013-01-23 01:28:00,
2013-01-22 19:43:00,21.0,12.5,30.23,SE,135,2.7,-999.0,69,-99.99,,,0.00,Acu-Link.com,2013-01-23 01:43:00,
2013-01-22 19:58:00,18.7,10.6,30.23,South,180,2.7,-999.0,70,-99.99,,,0.00,Acu-Link.com,2013-01-23 01:58:00,
2013-01-22 20:14:00,18.1,10.3,30.21,North,0,2.7,-999.0,71,-99.99,,,0.00,Acu-Link.com,2013-01-23 02:14:00,
2013-01-22 20:29:00,17.4,10.6,30.22,North,0,0.0,-999.0,74,-99.99,,,0.00,Acu-Link.com,2013-01-23 02:29:00,
2013-01-22 20:44:00,17.6,11.1,30.23,SSE,157,2.7,-999.0,75,-99.99,,,0.00,Acu-Link.com,2013-01-23 02:44:00,
2013-01-22 20:59:00,17.1,10.9,30.21,SSE,157,2.7,-999.0,76,-99.99,,,0.00,Acu-Link.com,2013-01-23 02:59:00,
2013-01-22 21:14:00,16.5,11.1,30.22,ESE,112,3.7,-999.0,79,-99.99,,,0.00,Acu-Link.com,2013-01-23 03:14:00,
2013-01-22 21:30:00,16.3,11.2,30.21,ESE,112,2.7,-999.0,80,-99.99,,,0.00,Acu-Link.com,2013-01-23 03:30:00,
2013-01-22 21:45:00,16.2,11.4,30.21,East,90,2.7,-999.0,81,-99.99,,,0.00,Acu-Link.com,2013-01-23 03:45:00,
2013-01-22 22:00:00,16.0,11.2,30.21,SE,135,2.7,-999.0,81,-99.99,,,0.00,Acu-Link.com,2013-01-23 04:00:00,
2013-01-22 22:15:00,16.3,11.2,30.21,SE,135,3.2,-999.0,80,-99.99,,,0.00,Acu-Link.com,2013-01-23 04:15:00,
2013-01-22 22:46:00,15.6,11.1,30.21,NNW,337,0.0,-999.0,82,-99.99,,,0.00,Acu-Link.com,2013-01-23 04:46:00,
2013-01-22 23:17:00,15.4,11.2,30.22,NE,45,0.0,-999.0,83,-99.99,,,0.00,Acu-Link.com,2013-01-23 05:17:00,
2013-01-22 23:32:00,14.7,10.2,30.21,North,0,0.0,-999.0,82,-99.99,,,0.00,Acu-Link.com,2013-01-23 05:32:00,
2013-01-22 23:47:00,14.9,11.0,30.22,NNE,22,0.0,-999.0,84,-99.99,,,0.00,Acu-Link.com,2013-01-23 05:47:00,